createdAt,value
2018-06-27T00:00:38.837Z,10.60
2018-06-27T00:03:06.259Z,11.33
2018-06-27T00:05:33.706Z,9.70
2018-06-27T00:08:01.107Z,10.00
2018-06-27T00:10:28.552Z,9.50
2018-06-27T00:12:56.655Z,10.67
2018-06-27T00:15:24.790Z,10.17
2018-06-27T00:17:52.700Z,10.53
2018-06-27T00:20:20.175Z,9.83
2018-06-27T00:22:47.603Z,11.00
2018-06-27T00:25:15.035Z,10.17
2018-06-27T00:27:42.480Z,10.70
2018-06-27T00:30:09.883Z,9.07
2018-06-27T00:32:37.335Z,11.43
2018-06-27T00:35:04.723Z,10.13
2018-06-27T00:37:32.112Z,10.17
2018-06-27T00:39:59.634Z,9.77
2018-06-27T00:42:27.035Z,10.03
2018-06-27T00:44:54.456Z,11.07
2018-06-27T00:47:21.869Z,9.10
2018-06-27T00:49:49.680Z,9.87
2018-06-27T00:52:17.068Z,11.30
2018-06-27T00:54:44.511Z,10.23
2018-06-27T00:57:11.936Z,9.80
2018-06-27T00:59:39.358Z,9.97
2018-06-27T01:02:06.779Z,9.57
2018-06-27T01:04:34.208Z,11.10
2018-06-27T01:07:01.624Z,10.10
2018-06-27T01:09:29.031Z,9.57
2018-06-27T01:11:56.480Z,9.60
2018-06-27T01:14:23.930Z,10.37
2018-06-27T01:16:51.379Z,10.53
2018-06-27T01:19:18.807Z,11.30
2018-06-27T01:21:46.212Z,11.73
2018-06-27T01:24:13.586Z,11.23
2018-06-27T01:26:41.028Z,10.60
2018-06-27T01:29:08.472Z,11.33
2018-06-27T01:31:35.872Z,11.63
2018-06-27T01:34:03.338Z,10.53
2018-06-27T01:36:30.743Z,10.10
2018-06-27T01:38:58.143Z,9.73
2018-06-27T01:41:25.603Z,11.03
2018-06-27T01:43:52.997Z,10.13
2018-06-27T01:46:20.420Z,9.87
2018-06-27T01:48:47.822Z,11.03
2018-06-27T01:51:15.239Z,10.20
2018-06-27T01:53:42.675Z,9.70
2018-06-27T01:56:10.819Z,11.23
2018-06-27T01:58:38.224Z,9.73
2018-06-27T02:01:06.183Z,10.40
2018-06-27T02:03:33.620Z,9.83
2018-06-27T02:06:01.272Z,11.70
2018-06-27T02:08:28.687Z,8.80
2018-06-27T02:10:56.262Z,8.57
2018-06-27T02:13:23.656Z,8.57
2018-06-27T02:15:51.112Z,8.83
2018-06-27T02:18:18.751Z,8.50
2018-06-27T02:20:46.170Z,9.17
2018-06-27T02:23:13.567Z,7.60
2018-06-27T02:25:41.199Z,7.73
2018-06-27T02:28:09.503Z,8.70
2018-06-27T02:30:37.151Z,8.73
2018-06-27T02:33:04.575Z,8.37
2018-06-27T02:35:32.001Z,8.80
2018-06-27T02:37:59.470Z,9.13
2018-06-27T02:40:26.935Z,9.47
2018-06-27T02:42:54.731Z,8.43
2018-06-27T02:45:22.139Z,7.53
2018-06-27T02:47:49.574Z,8.87
2018-06-27T02:50:17.214Z,8.07
2018-06-27T02:52:44.896Z,8.23
2018-06-27T02:55:12.640Z,9.47
2018-06-27T02:57:40.336Z,7.43
2018-06-27T03:00:09.222Z,8.37
2018-06-27T03:02:36.746Z,7.80
2018-06-27T03:05:04.073Z,7.37
2018-06-27T03:07:31.477Z,7.90
2018-06-27T03:09:58.888Z,7.67
2018-06-27T03:12:26.272Z,8.00
2018-06-27T03:14:53.672Z,7.60
2018-06-27T03:17:21.106Z,8.60
2018-06-27T03:19:48.574Z,9.33
2018-06-27T03:22:16.058Z,8.60
2018-06-27T03:24:43.463Z,8.87
2018-06-27T03:27:10.891Z,9.53
2018-06-27T03:29:38.362Z,9.63
2018-06-27T03:32:05.753Z,8.40
2018-06-27T03:34:33.168Z,8.43
2018-06-27T03:37:00.571Z,8.87
2018-06-27T03:39:28.002Z,8.67
2018-06-27T03:41:55.400Z,9.00
2018-06-27T03:44:22.851Z,9.60
2018-06-27T03:46:50.302Z,9.03
2018-06-27T03:49:17.903Z,11.17
2018-06-27T03:51:45.294Z,9.50
2018-06-27T03:54:12.702Z,9.60
2018-06-27T03:56:40.098Z,8.77
2018-06-27T03:59:07.770Z,10.27
2018-06-27T04:01:35.068Z,10.00
2018-06-27T04:04:02.514Z,10.33
2018-06-27T04:06:29.948Z,11.17
2018-06-27T04:08:57.368Z,9.67
2018-06-27T04:11:24.794Z,9.17
2018-06-27T04:13:52.220Z,9.27
2018-06-27T04:16:19.709Z,9.63
2018-06-27T04:18:47.110Z,10.13
2018-06-27T04:21:14.567Z,9.83
2018-06-27T04:23:41.967Z,8.53
2018-06-27T04:26:09.375Z,9.40
2018-06-27T04:28:36.796Z,9.90
2018-06-27T04:31:04.230Z,9.90
2018-06-27T04:33:31.634Z,9.80
2018-06-27T04:35:59.276Z,9.77
2018-06-27T04:38:26.647Z,10.83
2018-06-27T04:40:54.043Z,9.50
2018-06-27T04:43:21.614Z,9.90
2018-06-27T04:45:49.041Z,9.40
2018-06-27T04:48:16.444Z,9.00
2018-06-27T04:50:43.860Z,9.70
2018-06-27T04:53:11.270Z,9.83
2018-06-27T04:55:38.717Z,9.33
2018-06-27T04:58:06.148Z,8.57
2018-06-27T05:00:33.543Z,10.17
2018-06-27T05:03:00.939Z,9.67
2018-06-27T05:05:28.355Z,10.07
2018-06-27T05:07:55.787Z,9.87
2018-06-27T05:10:23.187Z,10.47
2018-06-27T05:12:50.601Z,10.60
2018-06-27T05:15:18.092Z,9.33
2018-06-27T05:17:45.532Z,11.90
2018-06-27T05:20:13.220Z,10.17
2018-06-27T05:22:40.623Z,10.80
2018-06-27T05:25:37.595Z,10.37
2018-06-27T05:28:05.010Z,10.33
2018-06-27T05:30:32.415Z,11.33
2018-06-27T05:32:59.837Z,9.93
2018-06-27T05:35:27.259Z,11.77
2018-06-27T05:37:54.704Z,11.10
2018-06-27T05:40:22.127Z,10.57
2018-06-27T05:42:49.776Z,12.20
2018-06-27T05:45:17.286Z,11.30
2018-06-27T05:47:44.731Z,10.23
2018-06-27T05:50:19.067Z,10.30
2018-06-27T05:52:46.567Z,11.60
2018-06-27T05:55:13.994Z,10.40
2018-06-27T05:57:41.427Z,10.63
2018-06-27T06:00:09.543Z,12.03
2018-06-27T06:02:37.158Z,11.47
2018-06-27T06:05:04.811Z,11.00
2018-06-27T06:07:32.259Z,9.73
2018-06-27T06:09:59.949Z,10.40
2018-06-27T06:12:27.407Z,10.23
2018-06-27T06:14:55.196Z,10.57
2018-06-27T06:17:22.601Z,9.73
2018-06-27T06:19:50.166Z,11.43
2018-06-27T06:22:17.883Z,10.53
2018-06-27T06:24:45.952Z,9.07
2018-06-27T06:27:14.383Z,11.23
2018-06-27T06:29:42.878Z,11.00
2018-06-27T06:32:10.367Z,10.60
2018-06-27T06:34:38.283Z,9.67
2018-06-27T06:37:05.755Z,9.93
2018-06-27T06:39:33.439Z,9.07
2018-06-27T06:42:01.272Z,9.97
2018-06-27T06:44:29.183Z,9.93
2018-06-27T06:46:56.574Z,10.47
2018-06-27T06:49:23.994Z,9.83
2018-06-27T06:51:51.409Z,9.80
2018-06-27T06:54:18.839Z,9.57
2018-06-27T06:56:46.303Z,11.23
2018-06-27T06:59:13.705Z,10.67
2018-06-27T07:01:41.119Z,10.47
2018-06-27T07:04:08.543Z,10.47
2018-06-27T07:06:35.967Z,10.00
2018-06-27T07:09:05.630Z,11.63
2018-06-27T07:11:33.071Z,11.77
2018-06-27T07:14:00.462Z,10.57
2018-06-27T07:16:27.892Z,10.50
2018-06-27T07:18:55.299Z,10.10
2018-06-27T07:21:22.711Z,10.27
2018-06-27T07:23:50.803Z,11.40
2018-06-27T07:26:18.229Z,11.30
2018-06-27T07:28:45.729Z,10.93
2018-06-27T07:31:13.165Z,10.00
2018-06-27T07:33:40.599Z,10.83
2018-06-27T07:36:08.065Z,10.30
2018-06-27T07:38:35.556Z,10.80
2018-06-27T07:41:03.066Z,10.30
2018-06-27T07:43:30.518Z,10.33
2018-06-27T07:45:58.004Z,10.67
2018-06-27T07:48:25.438Z,10.37
2018-06-27T07:50:52.899Z,11.43
2018-06-27T07:53:20.333Z,11.47
2018-06-27T07:55:47.767Z,10.87
2018-06-27T07:58:15.204Z,11.30
2018-06-27T08:00:42.641Z,11.13
2018-06-27T08:03:10.067Z,10.93
2018-06-27T08:05:37.531Z,10.33
2018-06-27T08:08:05.021Z,12.40
2018-06-27T08:10:32.459Z,11.47
2018-06-27T08:13:00.350Z,11.03
2018-06-27T08:15:27.778Z,10.83
2018-06-27T08:17:55.274Z,10.30
2018-06-27T08:20:22.632Z,11.00
2018-06-27T08:22:50.060Z,10.73
2018-06-27T08:25:17.520Z,11.33
2018-06-27T08:27:44.990Z,9.57
2018-06-27T08:30:12.527Z,10.67
2018-06-27T08:32:40.015Z,11.57
2018-06-27T08:35:07.449Z,10.90
2018-06-27T08:37:34.996Z,10.73
2018-06-27T08:40:02.513Z,12.10
2018-06-27T08:42:29.956Z,11.53
2018-06-27T08:44:57.416Z,11.23
2018-06-27T08:47:24.860Z,11.23
2018-06-27T08:49:52.319Z,10.27
2018-06-27T08:52:19.753Z,10.40
2018-06-27T08:54:47.522Z,12.23
2018-06-27T08:57:16.635Z,11.43
2018-06-27T08:59:44.065Z,11.87
2018-06-27T09:02:11.640Z,11.30
2018-06-27T09:04:39.520Z,11.67
2018-06-27T09:07:07.580Z,11.23
2018-06-27T09:09:34.999Z,11.23
2018-06-27T09:12:02.443Z,11.33
2018-06-27T09:17:23.888Z,12.70
2018-06-27T09:19:51.388Z,11.17
2018-06-27T09:22:18.831Z,12.00
2018-06-27T09:24:46.257Z,11.70
2018-06-27T09:27:13.682Z,10.33
2018-06-27T09:29:41.314Z,10.83
2018-06-27T09:32:08.760Z,11.57
2018-06-27T09:34:36.177Z,12.00
2018-06-27T09:37:03.655Z,11.17
2018-06-27T09:39:31.097Z,10.73
2018-06-27T09:41:58.565Z,10.63
2018-06-27T09:44:26.030Z,13.57
2018-06-27T09:46:53.463Z,11.33
2018-06-27T09:49:20.919Z,11.17
2018-06-27T09:51:48.360Z,12.07
2018-06-27T09:54:15.813Z,11.03
2018-06-27T09:56:43.267Z,10.77
2018-06-27T09:59:10.721Z,12.23
2018-06-27T10:01:38.236Z,11.37
2018-06-27T10:04:05.698Z,11.63
2018-06-27T10:06:33.114Z,10.70
2018-06-27T10:09:00.526Z,10.67
2018-06-27T10:11:28.008Z,11.33
2018-06-27T10:13:55.623Z,12.20
2018-06-27T10:16:23.091Z,12.03
2018-06-27T10:18:50.758Z,11.63
2018-06-27T10:21:18.208Z,11.00
2018-06-27T10:23:45.664Z,9.80
2018-06-27T10:26:13.099Z,10.83
2018-06-27T10:28:40.552Z,10.47
2018-06-27T10:31:08.830Z,11.10
2018-06-27T10:33:36.236Z,11.00
2018-06-27T10:36:03.744Z,11.10
2018-06-27T10:38:31.199Z,12.13
2018-06-27T10:40:58.640Z,10.63
2018-06-27T10:43:26.100Z,10.33
2018-06-27T10:45:53.540Z,10.80
2018-06-27T10:48:21.003Z,10.03
2018-06-27T10:50:48.439Z,10.70
2018-06-27T10:53:15.903Z,11.40
2018-06-27T10:55:43.337Z,10.17
2018-06-27T10:58:10.873Z,11.60
2018-06-27T11:00:38.322Z,10.27
2018-06-27T11:03:05.826Z,9.67
2018-06-27T11:05:33.232Z,10.43
2018-06-27T11:08:00.711Z,11.60
2018-06-27T11:10:28.210Z,10.18
2018-06-27T11:12:55.620Z,9.87
2018-06-27T11:15:23.061Z,8.90
2018-06-27T11:17:50.498Z,8.35
2018-06-27T11:20:17.906Z,8.25
2018-06-27T11:22:45.366Z,8.45
2018-06-27T11:25:12.809Z,8.65
2018-06-27T11:27:40.239Z,8.38
2018-06-27T11:30:07.715Z,8.15
2018-06-27T11:32:35.127Z,9.58
2018-06-27T11:35:02.572Z,8.18
2018-06-27T11:37:30.004Z,8.28
2018-06-27T11:39:57.489Z,7.67
2018-06-27T11:42:24.929Z,7.92
2018-06-27T11:44:52.324Z,8.18
2018-06-27T11:47:19.753Z,9.43
2018-06-27T11:49:47.203Z,7.60
2018-06-27T11:52:14.689Z,7.83
2018-06-27T11:54:42.119Z,7.45
2018-06-27T11:57:09.849Z,8.65
2018-06-27T11:59:37.414Z,7.20
2018-06-27T12:02:04.856Z,7.03
2018-06-27T12:04:32.281Z,7.03
2018-06-27T12:06:59.809Z,6.72
2018-06-27T12:09:27.259Z,5.62
2018-06-27T12:11:54.758Z,6.97
2018-06-27T12:14:22.235Z,7.47
2018-06-27T12:16:49.669Z,7.47
2018-06-27T12:19:17.125Z,7.53
2018-06-27T12:21:44.529Z,8.23
2018-06-27T12:24:21.311Z,6.45
2018-06-27T12:26:48.830Z,6.45
2018-06-27T12:29:16.280Z,6.70
2018-06-27T12:31:43.726Z,6.15
2018-06-27T12:34:11.171Z,6.17
2018-06-27T12:36:38.602Z,5.10
2018-06-27T12:39:06.517Z,5.67
2018-06-27T12:44:52.549Z,5.87
2018-06-27T12:53:58.147Z,5.30
2018-06-27T12:56:32.778Z,4.17
2018-06-27T12:59:00.244Z,4.55
2018-06-27T13:01:27.714Z,4.67
2018-06-27T13:03:55.334Z,5.00
2018-06-27T13:06:22.842Z,4.10
2018-06-27T13:08:50.402Z,4.22
2018-06-27T13:11:18.026Z,4.40
2018-06-27T13:13:45.480Z,3.98
2018-06-27T13:16:12.928Z,3.83
2018-06-27T13:18:40.391Z,4.03
2018-06-27T13:21:07.878Z,4.50
2018-06-27T13:23:35.340Z,4.47
2018-06-27T13:26:02.812Z,4.47
2018-06-27T13:28:30.275Z,4.55
2018-06-27T13:30:57.757Z,4.12
2018-06-27T13:33:25.235Z,3.50
2018-06-27T13:35:52.722Z,4.00
2018-06-27T13:38:20.238Z,3.60
2018-06-27T13:40:47.729Z,3.30
2018-06-27T13:43:15.399Z,3.77
2018-06-27T13:45:42.742Z,3.10
2018-06-27T13:48:10.219Z,3.20
2018-06-27T13:50:37.714Z,3.72
2018-06-27T13:53:05.244Z,3.30
2018-06-27T13:55:32.705Z,3.60
2018-06-27T13:58:00.124Z,3.42
2018-06-27T14:00:27.565Z,3.65
2018-06-27T14:02:55.040Z,3.87
2018-06-27T14:05:22.495Z,3.65
2018-06-27T14:07:49.971Z,3.47
2018-06-27T14:10:17.435Z,3.98
2018-06-27T14:12:44.865Z,4.40
2018-06-27T14:15:12.296Z,4.22
2018-06-27T14:17:39.769Z,3.85
2018-06-27T14:20:07.224Z,3.65
2018-06-27T14:22:34.687Z,3.55
2018-06-27T14:25:02.172Z,4.17
2018-06-27T14:27:29.641Z,3.60
2018-06-27T14:29:57.125Z,3.80
2018-06-27T14:32:24.561Z,3.58
2018-06-27T14:34:51.988Z,3.33
2018-06-27T14:37:19.477Z,3.80
2018-06-27T14:39:46.991Z,3.47
2018-06-27T14:42:14.497Z,3.52
2018-06-27T14:44:42.054Z,3.67
2018-06-27T14:47:09.541Z,3.02
2018-06-27T14:49:36.996Z,3.58
2018-06-27T14:52:04.470Z,3.45
2018-06-27T14:54:31.913Z,3.17
2018-06-27T14:56:59.395Z,3.77
2018-06-27T14:59:26.947Z,3.30
2018-06-27T15:01:54.375Z,3.30
2018-06-27T15:04:22.072Z,3.15
2018-06-27T15:06:49.587Z,3.05
2018-06-27T15:09:17.155Z,3.80
2018-06-27T15:11:44.680Z,3.50
2018-06-27T15:14:12.820Z,3.02
2018-06-27T15:16:40.820Z,2.87
2018-06-27T15:19:08.274Z,3.30
2018-06-27T15:21:35.827Z,2.85
2018-06-27T15:24:03.466Z,2.77
2018-06-27T15:26:30.961Z,2.95
2018-06-27T15:28:58.450Z,3.10
2018-06-27T15:31:25.942Z,2.75
2018-06-27T15:33:53.450Z,3.30
2018-06-27T15:36:20.930Z,2.80
2018-06-27T15:38:48.375Z,2.67
2018-06-27T15:41:15.908Z,2.75
2018-06-27T15:43:43.563Z,2.90
2018-06-27T15:46:11.369Z,2.72
2018-06-27T15:48:38.839Z,2.90
2018-06-27T15:51:06.314Z,3.00
2018-06-27T15:53:33.741Z,2.80
2018-06-27T15:56:01.213Z,2.58
2018-06-27T15:58:28.695Z,3.00
2018-06-27T16:00:56.236Z,2.87
2018-06-27T16:03:23.767Z,2.98
2018-06-27T16:05:51.243Z,2.85
2018-06-27T16:08:18.749Z,2.65
2018-06-27T16:10:46.208Z,3.02
2018-06-27T16:13:13.633Z,3.27
2018-06-27T16:15:41.121Z,2.87
2018-06-27T16:18:08.651Z,3.17
2018-06-27T16:20:36.148Z,3.00
2018-06-27T16:23:03.751Z,2.80
2018-06-27T16:25:31.224Z,2.58
2018-06-27T16:27:58.748Z,3.20
2018-06-27T16:30:26.278Z,2.80
2018-06-27T16:32:53.761Z,3.10
2018-06-27T16:35:21.183Z,2.35
2018-06-27T16:37:49.151Z,2.22
2018-06-27T16:40:16.635Z,2.65
2018-06-27T16:42:44.125Z,2.15
2018-06-27T16:45:11.625Z,2.20
2018-06-27T16:47:39.102Z,2.40
2018-06-27T16:50:07.191Z,2.83
2018-06-27T16:52:34.697Z,2.52
2018-06-27T16:55:02.179Z,2.50
2018-06-27T16:57:29.667Z,2.60
2018-06-27T16:59:57.116Z,2.90
2018-06-27T17:02:24.584Z,2.47
2018-06-27T17:04:52.059Z,2.70
2018-06-27T17:07:19.565Z,2.40
2018-06-27T17:09:47.065Z,2.70
2018-06-27T17:12:14.681Z,2.62
2018-06-27T17:14:42.154Z,2.33
2018-06-27T17:17:09.622Z,2.60
2018-06-27T17:19:37.046Z,2.47
2018-06-27T17:22:04.501Z,2.52
2018-06-27T17:24:31.956Z,2.50
2018-06-27T17:26:59.439Z,2.50
2018-06-27T17:29:26.836Z,2.30
2018-06-27T17:31:54.293Z,2.50
2018-06-27T17:34:21.811Z,2.67
2018-06-27T17:36:49.292Z,2.87
2018-06-27T17:39:16.807Z,2.30
2018-06-27T17:41:44.244Z,2.35
2018-06-27T17:44:11.820Z,2.47
2018-06-27T17:46:39.293Z,2.10
2018-06-27T17:49:06.854Z,2.22
2018-06-27T17:51:34.295Z,2.10
2018-06-27T17:54:01.736Z,2.10
2018-06-27T17:56:29.518Z,2.20
2018-06-27T17:58:56.941Z,1.90
2018-06-27T18:01:24.416Z,2.00
2018-06-27T18:03:53.110Z,1.77
2018-06-27T18:06:20.647Z,2.40
2018-06-27T18:08:48.130Z,2.03
2018-06-27T18:11:15.613Z,2.02
2018-06-27T18:13:43.031Z,1.90
2018-06-27T18:16:10.515Z,1.62
2018-06-27T18:18:38.016Z,2.17
2018-06-27T18:21:05.656Z,2.33
2018-06-27T18:23:33.447Z,1.70
2018-06-27T18:26:00.895Z,1.65
2018-06-27T18:28:28.327Z,1.87
2018-06-27T18:30:55.764Z,2.00
2018-06-27T18:33:23.244Z,2.15
2018-06-27T18:35:50.695Z,2.05
2018-06-27T18:38:18.184Z,1.95
2018-06-27T18:40:45.683Z,1.80
2018-06-27T18:43:13.098Z,1.80
2018-06-27T18:45:40.527Z,1.70
2018-06-27T18:48:07.976Z,1.72
2018-06-27T18:50:35.452Z,1.80
2018-06-27T18:53:02.989Z,1.80
2018-06-27T18:55:30.429Z,1.77
2018-06-27T18:57:57.851Z,1.77
2018-06-27T19:00:25.297Z,2.00
2018-06-27T19:02:52.728Z,2.37
2018-06-27T19:05:20.188Z,2.20
2018-06-27T19:07:47.648Z,2.00
2018-06-27T19:10:15.225Z,2.47
2018-06-27T19:12:42.692Z,1.70
2018-06-27T19:15:10.115Z,2.60
2018-06-27T19:17:37.566Z,1.70
2018-06-27T19:20:05.022Z,2.37
2018-06-27T19:22:32.481Z,2.02
2018-06-27T19:25:00.006Z,1.72
2018-06-27T19:27:27.525Z,1.92
2018-06-27T19:29:55.171Z,1.98
2018-06-27T19:32:22.659Z,2.12
2018-06-27T19:34:50.084Z,2.20
2018-06-27T19:37:17.832Z,1.92
2018-06-27T19:39:45.326Z,2.00
2018-06-27T19:42:13.062Z,2.53
2018-06-27T19:44:40.781Z,2.00
2018-06-27T19:47:08.291Z,2.13
2018-06-27T19:49:35.766Z,2.07
2018-06-27T19:52:03.252Z,1.87
2018-06-27T19:54:30.724Z,1.90
2018-06-27T19:56:58.153Z,2.57
2018-06-27T19:59:25.777Z,2.00
2018-06-27T20:01:53.276Z,2.47
2018-06-27T20:04:20.709Z,2.93
2018-06-27T20:06:48.172Z,2.03
2018-06-27T20:09:15.620Z,2.10
2018-06-27T20:11:43.062Z,2.00
2018-06-27T20:14:10.630Z,2.10
2018-06-27T20:16:38.081Z,2.87
2018-06-27T20:19:05.514Z,2.37
2018-06-27T20:21:33.045Z,2.43
2018-06-27T20:24:00.529Z,2.30
2018-06-27T20:26:27.922Z,2.67
2018-06-27T20:28:55.357Z,2.80
2018-06-27T20:31:22.817Z,2.67
2018-06-27T20:33:50.250Z,2.03
2018-06-27T20:36:17.692Z,2.10
2018-06-27T20:38:45.148Z,2.30
2018-06-27T20:41:12.837Z,2.47
2018-06-27T20:43:40.260Z,2.20
2018-06-27T20:46:08.079Z,2.93
2018-06-27T20:48:35.876Z,2.60
2018-06-27T20:51:03.625Z,2.50
2018-06-27T20:53:31.115Z,2.40
2018-06-27T20:55:58.585Z,2.43
2018-06-27T20:58:26.043Z,2.40
2018-06-27T21:00:53.742Z,2.27
2018-06-27T21:03:21.203Z,2.67
2018-06-27T21:05:48.679Z,2.33
2018-06-27T21:08:17.722Z,2.50
2018-06-27T21:10:45.349Z,2.37
2018-06-27T21:13:12.804Z,2.40
2018-06-27T21:15:40.625Z,2.40
2018-06-27T21:18:08.064Z,3.07
2018-06-27T21:20:35.483Z,2.60
2018-06-27T21:23:02.975Z,2.90
2018-06-27T21:25:30.460Z,2.80
2018-06-27T21:27:57.923Z,2.60
2018-06-27T21:30:25.352Z,2.80
2018-06-27T21:32:52.812Z,2.70
2018-06-27T21:35:20.263Z,3.33
2018-06-27T21:37:47.808Z,2.60
2018-06-27T21:40:15.261Z,2.70
2018-06-27T21:42:42.684Z,2.70
2018-06-27T21:45:10.136Z,2.80
2018-06-27T21:47:37.560Z,2.77
2018-06-27T21:50:05.116Z,3.10
2018-06-27T21:52:32.529Z,3.30
2018-06-27T21:54:59.948Z,3.17
2018-06-27T21:57:27.377Z,3.10
2018-06-27T21:59:54.949Z,3.30
2018-06-27T22:02:22.468Z,3.83
2018-06-27T22:04:49.880Z,3.63
2018-06-27T22:07:17.532Z,3.13
2018-06-27T22:09:44.962Z,3.50
2018-06-27T22:12:12.480Z,4.07
2018-06-27T22:14:40.193Z,4.00
2018-06-27T22:17:07.635Z,4.50
2018-06-27T22:19:35.125Z,4.03
2018-06-27T22:22:02.572Z,4.57
2018-06-27T22:24:29.989Z,4.30
2018-06-27T22:26:57.522Z,4.73
2018-06-27T22:29:25.003Z,4.80
2018-06-27T22:31:52.397Z,5.13
2018-06-27T22:34:19.833Z,5.00
2018-06-27T22:36:47.313Z,5.20
2018-06-27T22:39:14.965Z,5.40
2018-06-27T22:41:42.480Z,5.10
2018-06-27T22:44:09.949Z,5.40
2018-06-27T22:46:37.448Z,5.37
2018-06-27T22:49:05.103Z,4.70
2018-06-27T22:51:32.531Z,5.57
2018-06-27T22:54:00.041Z,5.53
2018-06-27T22:56:27.515Z,6.47
2018-06-27T22:58:55.120Z,5.87
2018-06-27T23:01:22.561Z,6.87
2018-06-27T23:03:50.028Z,5.70
2018-06-27T23:06:17.443Z,6.07
2018-06-27T23:08:44.890Z,5.57
2018-06-27T23:11:12.386Z,6.63
2018-06-27T23:13:39.788Z,7.30
2018-06-27T23:16:07.276Z,6.77
2018-06-27T23:18:34.976Z,7.30
2018-06-27T23:21:02.558Z,7.20
2018-06-27T23:23:29.953Z,6.37
2018-06-27T23:25:57.414Z,6.93
2018-06-27T23:28:24.812Z,7.77
2018-06-27T23:30:52.256Z,7.10
2018-06-27T23:33:19.704Z,7.60
2018-06-27T23:35:47.151Z,6.63
2018-06-27T23:38:14.592Z,7.07
2018-06-27T23:40:42.083Z,7.00
2018-06-27T23:43:09.483Z,6.70
2018-06-27T23:45:36.892Z,7.53
2018-06-27T23:48:04.662Z,6.73
2018-06-27T23:50:32.058Z,7.27
2018-06-27T23:52:59.443Z,6.80
2018-06-27T23:55:26.880Z,7.53
2018-06-27T23:57:54.280Z,7.77
